Results: 2014 ITU World Triathlon Auckland | Elite Women
Auckland, New Zealand • 06 Apr, 2014
Pos First Name Last Name YOB Country Start
Num
Time Swim
1500m
T1 Bike
40.72km
T2 Run
10km
1 Jodie Stimpson 1989 GBR 1 02:08:34 00:20:03 00:00:55 01:11:29 00:00:28 00:35:38
2 Anne Haug 1983 GER 2 02:08:59 00:20:42 00:00:52 01:11:36 00:00:28 00:35:19
3 Helen Jenkins 1984 GBR 45 02:09:10 00:19:58 00:00:56 01:12:17 00:00:30 00:35:28
4 Sarah-Anne Brault 1989 CAN 35 02:09:15 00:19:59 00:00:56 01:12:19 00:00:30 00:35:29
5 Sarah True 1981 USA 7 02:09:20 00:19:57 00:00:54 01:12:22 00:00:31 00:35:34
6 Andrea Hewitt 1982 NZL 4 02:09:21 00:20:11 00:00:55 01:12:05 00:00:31 00:35:37
7 Emma Moffatt 1984 AUS 5 02:09:35 00:19:55 00:01:00 01:12:17 00:00:30 00:35:51
8 Barbara Riveros 1987 CHI 23 02:09:53 00:20:38 00:00:54 01:11:37 00:00:29 00:36:13
9 Alice Betto 1987 ITA 8 02:10:05 00:19:55 00:00:55 01:12:21 00:00:30 00:36:24
10 Rachel Klamer 1990 NED 28 02:10:22 00:19:52 00:00:56 01:12:21 00:00:28 00:36:43
11 Emma Jackson 1991 AUS 9 02:10:32 00:20:01 00:00:56 01:12:18 00:00:32 00:36:43
12 Gwen Jorgensen 1986 USA 3 02:10:39 00:19:59 00:00:57 01:14:54 00:00:30 00:34:16
13 Kate Mcilroy 1981 NZL 14 02:10:52 00:20:00 00:00:54 01:11:32 00:00:30 00:37:53
14 Vendula Frintova 1983 CZE 18 02:11:06 00:20:16 00:00:58 01:11:58 00:00:29 00:37:22
15 Maaike Caelers 1990 NED 10 02:11:40 00:20:36 00:00:57 01:11:39 00:00:31 00:37:55
16 Nicky Samuels 1983 NZL 12 02:11:57 00:19:50 00:00:57 01:11:38 00:00:28 00:39:01
17 Joanna Brown 1992 CAN 31 02:12:06 00:20:04 00:00:58 01:12:11 00:00:33 00:38:18
18 Rebecca Robisch 1988 GER 27 02:12:23 00:20:37 00:00:55 01:11:38 00:00:33 00:38:38
19 Lucy Hall 1992 GBR 38 02:13:05 00:19:56 00:00:00 00:00:00 00:00:32 00:39:16
20 Ashleigh Gentle 1991 AUS 6 02:13:13 00:20:35 00:00:57 01:14:21 00:00:33 00:36:45
21 Juri Ide 1983 JPN 11 02:13:14 00:20:14 00:00:59 01:14:40 00:00:29 00:36:50
22 Ai Ueda 1983 JPN 15 02:13:24 00:20:18 00:00:59 01:14:40 00:00:32 00:36:53
23 Ellen Pennock 1992 CAN 34 02:13:28 00:19:57 00:00:55 01:15:04 00:00:37 00:36:54
24 Mariko Adachi 1983 JPN 22 02:13:42 00:19:58 00:00:58 01:14:59 00:00:29 00:37:16
25 Anja Knapp 1988 GER 21 02:13:57 00:19:58 00:00:55 01:12:16 00:00:27 00:40:19
26 Pamella Oliveira 1987 BRA 29 02:14:31 00:19:52 00:00:57 01:15:08 00:00:35 00:37:58
27 Claire Michel 1988 BEL 50 02:14:37 00:20:10 00:00:54 01:16:38 00:00:33 00:36:20
28 Mateja Simic 1980 SLO 32 02:14:59 00:20:17 00:00:00 00:00:00 00:00:35 00:38:25
29 Kirsten Sweetland 1988 CAN 20 02:15:13 00:20:02 00:00:57 01:14:59 00:00:35 00:38:39
30 Vicky Holland 1986 GBR 25 02:15:16 00:20:01 00:01:00 01:16:40 00:00:32 00:37:01
31 Charlotte McShane 1990 AUS 16 02:15:41 00:20:16 00:00:55 01:14:43 00:00:34 00:39:10
32 Hanna Philippin 1992 GER 44 02:16:31 00:20:36 00:00:59 01:15:59 00:00:30 00:38:25
33 Claudia Rivas 1989 MEX 26 02:17:10 00:20:03 00:00:56 01:16:42 00:00:35 00:38:53
34 Yuko Takahashi 1991 JPN 24 02:17:13 00:19:56 00:00:59 01:16:42 00:00:27 00:39:07
35 Anneke Jenkins 1989 NZL 51 02:17:27 00:20:35 00:00:57 01:14:22 00:00:31 00:40:59
36 Natalie Milne 1989 GBR 33 02:18:23 00:19:50 00:01:00 01:15:06 00:00:34 00:41:52
37 Tamsyn Moana-Veale 1993 AUS 37 02:19:22 00:19:56 00:00:58 01:16:47 00:00:33 00:41:07
38 Maria Czesnik 1977 POL 42 02:19:46 00:20:44 00:01:03 01:18:01 00:00:38 00:39:18
39 Carolina Routier 1990 ESP 36 02:20:48 00:19:48 00:00:56 01:18:33 00:00:30 00:40:59
DSQ Katie Zaferes 1989 USA 30 00:00:00 00:19:55 00:00:55 01:18:50 00:00:32 00:37:29
DNF Yuka Sato 1992 JPN 19 00:00:00 00:20:00 00:01:00 01:16:36 00:00:34 00:00:00
DNF Simone Ackermann 1990 ITU 39 00:00:00 00:20:01 00:01:01 01:16:39 00:00:36 00:00:00
DNF Sofie Hooghe 1991 BEL 49 00:00:00 00:20:01 00:00:56 01:16:42 00:00:38 00:00:00
DNF Rebecca Clarke 1988 NZL 40 00:00:00 00:19:56 00:00:56 00:00:00 00:00:00 00:00:00
DNF Annamaria Mazzetti 1988 ITA 17 00:00:00 00:20:05 00:00:56 00:00:00 00:00:00 00:00:00
DNF Michelle Mehnert 1989 USA 41 00:00:00 00:20:04 00:01:03 00:00:00 00:00:00 00:00:00
DNF Fiona Crombie 1982 NZL 46 00:00:00 00:22:08 00:01:02 00:00:00 00:00:00 00:00:00
DNF Sarissa De Vries 1989 NED 43 00:00:00 00:20:19 00:00:57 00:00:00 00:00:00 00:00:00
DNF Lois Rosindale 1990 GBR 48 00:00:00 00:20:38 00:00:58 00:00:00 00:00:00 00:00:00
DNF Tamara Gomez Garrido 1991 ESP 47 00:00:00 00:20:40 00:00:57 00:00:00 00:00:00 00:00:00
Race conditions:  30.7°C |  20.6°C (no wetsuit)
Program notes:

Distances: Swim 1500 m (2 laps) Bike 40,724 km (8 laps) Run 10 Km (4 laps), Water temperature 20.6 C air temperature 30.7 C, humidity 33%. Wetsuit not allowed. Athlete # 30 Katie Hursey/USA was DSQ due to irregular transition.